Time;durP1;ratioP1;P1;durP2;ratioP2;P2;SDS_P1;SDS_P2;PMS_P1;PMS_P2;Temp;Humidity;BMP_temperature;BMP_pressure;BME280_temperature;BME280_humidity;BME280_pressure;Samples;Min_cycle;Max_cycle;Signal;HPM_P1;HPM_P2
2023/06/23 00:01:01;;;;;;;6.43;4.55;;;;;;;23.50;79.05;99907.56;5133157;28;20035;-83
2023/06/23 00:03:27;;;;;;;6.07;3.25;;;;;;;23.15;76.52;99881.09;5121043;28;20028;-83
2023/06/23 00:05:53;;;;;;;5.85;3.00;;;;;;;23.36;75.89;99887.78;5108425;28;20062;-82
2023/06/23 00:08:19;;;;;;;3.38;2.38;;;;;;;23.23;75.97;99878.78;5100756;28;20043;-81
2023/06/23 00:10:44;;;;;;;6.40;3.92;;;;;;;22.92;76.61;99863.72;5121162;28;20035;-82
2023/06/23 00:13:11;;;;;;;5.18;2.88;;;;;;;23.15;76.98;99894.56;5127295;28;20026;-83
2023/06/23 00:15:36;;;;;;;6.35;3.17;;;;;;;23.32;76.39;99913.16;5121081;28;20100;-82
2023/06/23 00:18:02;;;;;;;6.03;3.53;;;;;;;23.23;76.27;99886.84;5128893;28;20031;-83
2023/06/23 00:20:28;;;;;;;4.72;2.35;;;;;;;23.52;76.59;99924.47;5114394;28;20028;-83
2023/06/23 00:22:53;;;;;;;6.00;3.40;;;;;;;23.50;76.59;99888.72;5113278;28;20087;-80
2023/06/23 00:25:18;;;;;;;4.82;3.47;;;;;;;23.68;77.09;99914.44;5117497;28;20048;-85
2023/06/23 00:27:47;;;;;;;7.53;4.05;;;;;;;23.72;77.69;99896.22;5103910;28;20103;-83
2023/06/23 00:30:14;;;;;;;4.78;3.45;;;;;;;23.71;78.92;99911.53;5091384;28;20032;-82
2023/06/23 00:32:41;;;;;;;6.88;4.57;;;;;;;23.57;80.33;99909.75;5091001;28;20024;-83
2023/06/23 00:35:08;;;;;;;10.52;3.38;;;;;;;23.47;80.32;99881.72;5091489;28;20528;-83
2023/06/23 00:37:37;;;;;;;7.30;4.10;;;;;;;23.62;79.46;99881.66;5090505;28;20425;-83
2023/06/23 00:40:10;;;;;;;6.55;3.97;;;;;;;23.69;80.22;99924.22;5089915;28;20197;-82
2023/06/23 00:42:52;;;;;;;5.82;4.25;;;;;;;23.58;79.78;99892.63;5090796;28;20044;-83
2023/06/23 00:45:19;;;;;;;12.38;4.82;;;;;;;23.55;80.91;99933.19;5091496;28;20036;-82
2023/06/23 00:47:45;;;;;;;6.20;4.30;;;;;;;23.47;81.67;99911.31;5091524;28;20059;-83
2023/06/23 00:50:18;;;;;;;11.07;5.13;;;;;;;23.53;81.48;99924.38;5098260;28;20019;-82
2023/06/23 00:52:49;;;;;;;10.60;4.70;;;;;;;23.26;82.23;99902.78;5114689;28;20032;-82
2023/06/23 00:55:27;;;;;;;7.85;4.03;;;;;;;23.29;82.03;99912.50;5103235;28;20101;-82
2023/06/23 00:57:55;;;;;;;4.72;4.05;;;;;;;23.21;81.74;99913.84;5093633;28;20032;-83
2023/06/23 01:00:22;;;;;;;6.47;4.75;;;;;;;23.05;81.99;99899.63;5094094;28;20038;-83
2023/06/23 01:02:52;;;;;;;8.43;4.03;;;;;;;23.08;82.35;99894.06;5093594;28;20038;-83
2023/06/23 01:05:26;;;;;;;9.13;5.45;;;;;;;22.70;83.70;99882.06;5076674;28;20031;-83
2023/06/23 01:07:58;;;;;;;5.20;4.05;;;;;;;22.98;84.16;99911.75;5093702;28;20028;-82
2023/06/23 01:10:26;;;;;;;6.10;3.78;;;;;;;23.06;83.43;99913.00;5093561;28;20040;-83
2023/06/23 01:13:02;;;;;;;8.98;4.93;;;;;;;22.94;82.64;99894.06;5075027;28;20028;-82
2023/06/23 01:15:34;;;;;;;11.10;5.75;;;;;;;22.96;82.35;99911.00;5094219;28;20039;-83
2023/06/23 01:18:59;;;;;;;7.68;4.43;;;;;;;22.96;83.28;99913.69;5093258;28;20028;-82
2023/06/23 01:21:38;;;;;;;8.15;4.40;;;;;;;22.60;83.78;99861.22;4991338;28;20294;-82
2023/06/23 01:24:15;;;;;;;5.70;3.47;;;;;;;22.88;83.52;99906.94;4991828;28;20042;-82
2023/06/23 01:27:02;;;;;;;5.30;3.15;;;;;;;22.84;84.33;99899.16;5005903;28;20092;-83
2023/06/23 01:29:31;;;;;;;7.95;4.40;;;;;;;22.77;84.40;99882.56;5011130;28;20034;-82
2023/06/23 01:32:05;;;;;;;7.13;4.95;;;;;;;22.91;83.45;99891.56;5010895;28;20037;-82
2023/06/23 01:34:39;;;;;;;5.72;4.97;;;;;;;22.89;83.61;99897.94;5011326;28;20531;-82
2023/06/23 01:37:12;;;;;;;11.45;5.80;;;;;;;22.79;83.66;99869.88;5010402;28;20042;-82
2023/06/23 01:39:41;;;;;;;4.68;3.80;;;;;;;22.67;84.17;99871.50;4991141;28;20030;-82
2023/06/23 01:42:12;;;;;;;5.85;4.15;;;;;;;22.90;83.83;99909.53;4991108;28;20047;-82
2023/06/23 01:44:43;;;;;;;21.23;5.32;;;;;;;22.81;84.33;99900.22;4990986;28;20037;-82
2023/06/23 01:47:18;;;;;;;15.55;4.88;;;;;;;22.70;83.98;99862.38;5007490;28;20074;-82
2023/06/23 01:49:46;;;;;;;9.95;4.47;;;;;;;22.76;83.97;99886.19;5010382;28;20042;-82
2023/06/23 01:52:15;;;;;;;8.05;4.82;;;;;;;22.81;84.49;99891.28;5010713;28;20045;-82
2023/06/23 01:54:42;;;;;;;6.63;3.80;;;;;;;22.73;84.46;99890.91;5028432;28;20131;-82
2023/06/23 01:57:12;;;;;;;8.52;4.68;;;;;;;22.80;83.85;99897.63;5105646;28;20468;-82
2023/06/23 01:59:39;;;;;;;10.35;4.88;;;;;;;22.76;83.74;99875.44;5112847;28;20126;-82
2023/06/23 02:02:07;;;;;;;9.85;5.57;;;;;;;22.58;84.01;99858.63;5112207;28;20088;-82
2023/06/23 02:04:35;;;;;;;9.07;4.93;;;;;;;22.88;83.62;99900.72;5112720;28;20063;-81
2023/06/23 02:07:01;;;;;;;7.95;4.65;;;;;;;22.64;84.31;99884.28;5110657;28;20031;-81
2023/06/23 02:09:29;;;;;;;8.35;5.18;;;;;;;22.74;84.23;99900.69;5112848;28;20067;-81
2023/06/23 02:11:57;;;;;;;15.77;5.43;;;;;;;22.67;84.39;99903.75;5111972;28;20035;-81
2023/06/23 02:14:26;;;;;;;8.52;4.68;;;;;;;22.69;84.64;99917.09;5112734;28;20032;-81
2023/06/23 02:16:53;;;;;;;6.90;3.92;;;;;;;22.68;84.62;99916.25;5110707;28;20055;-81
2023/06/23 02:19:21;;;;;;;5.45;4.10;;;;;;;22.63;84.58;99913.00;5077519;28;20417;-81
2023/06/23 02:21:48;;;;;;;6.38;3.70;;;;;;;22.53;84.81;99899.22;5091748;28;20030;-81
2023/06/23 02:24:14;;;;;;;5.13;3.15;;;;;;;22.60;84.51;99913.19;5063732;28;20028;-81
2023/06/23 02:26:41;;;;;;;8.88;6.40;;;;;;;22.46;85.75;99926.59;5112359;28;20489;-81
2023/06/23 02:29:08;;;;;;;8.27;4.53;;;;;;;22.42;85.56;99896.34;5110492;28;20064;-81
2023/06/23 02:31:34;;;;;;;10.07;5.05;;;;;;;22.52;85.98;99929.78;5112279;28;20417;-81
2023/06/23 02:34:00;;;;;;;7.72;4.50;;;;;;;22.50;86.48;99926.31;5111865;28;20038;-81
2023/06/23 02:36:37;;;;;;;6.57;4.10;;;;;;;22.48;86.47;99903.19;5112411;28;20473;-81
2023/06/23 02:39:06;;;;;;;6.47;4.13;;;;;;;22.45;86.14;99892.63;5110366;28;20085;-82
2023/06/23 02:41:35;;;;;;;6.15;3.72;;;;;;;22.58;86.31;99933.91;5110328;28;20035;-82
2023/06/23 02:44:06;;;;;;;7.40;4.85;;;;;;;22.48;86.18;99922.84;5091849;28;20043;-82
2023/06/23 02:46:38;;;;;;;9.32;5.30;;;;;;;22.57;85.91;99921.44;5091058;28;20027;-82
2023/06/23 02:49:07;;;;;;;10.80;3.65;;;;;;;22.58;86.37;99936.59;5091259;28;20036;-81
2023/06/23 02:51:36;;;;;;;5.28;4.05;;;;;;;22.61;85.99;99931.03;5091287;28;20119;-81
2023/06/23 02:54:07;;;;;;;7.97;4.35;;;;;;;22.60;86.39;99937.38;5074316;28;20502;-81
2023/06/23 02:56:41;;;;;;;6.22;4.47;;;;;;;22.57;86.20;99928.63;5090680;28;20585;-81
2023/06/23 02:59:08;;;;;;;9.40;6.03;;;;;;;22.66;86.09;99937.00;5091130;28;20027;-81
2023/06/23 03:01:39;;;;;;;7.93;4.88;;;;;;;22.39;86.17;99891.16;5103710;28;20072;-82
2023/06/23 03:04:05;;;;;;;5.75;3.97;;;;;;;22.45;86.28;99906.06;5095116;28;20032;-81
2023/06/23 03:06:34;;;;;;;10.40;4.88;;;;;;;22.59;85.41;99915.97;5091178;28;20040;-81
2023/06/23 03:09:02;;;;;;;14.73;4.97;;;;;;;22.65;85.57;99937.09;5091113;28;20024;-81
2023/06/23 03:11:30;;;;;;;8.43;5.05;;;;;;;22.49;85.83;99915.66;5091044;28;20084;-83
2023/06/23 03:13:56;;;;;;;4.25;3.15;;;;;;;22.42;86.94;99931.28;5091402;28;20556;-81
2023/06/23 03:16:43;;;;;;;8.20;4.88;;;;;;;22.55;86.66;99943.97;5090547;28;20032;-81
2023/06/23 03:19:49;;;;;;;11.20;6.38;;;;;;;22.48;86.96;99951.56;5098745;28;20513;-82
2023/06/23 03:22:22;;;;;;;8.32;5.28;;;;;;;22.25;87.79;99917.97;5021704;28;20048;-82
2023/06/23 03:24:54;;;;;;;9.68;5.32;;;;;;;22.29;88.15;99933.81;5026931;28;20051;-82
2023/06/23 03:27:22;;;;;;;6.93;4.43;;;;;;;22.29;88.71;99931.13;5014416;28;20495;-83
2023/06/23 03:30:12;;;;;;;9.73;4.75;;;;;;;22.17;88.84;99899.63;5009719;28;20033;-82
2023/06/23 03:32:43;;;;;;;8.57;6.43;;;;;;;22.42;88.07;99903.56;5028475;28;20075;-82
2023/06/23 03:35:15;;;;;;;10.45;6.55;;;;;;;22.64;87.63;99916.53;5011872;28;20123;-81
2023/06/23 03:37:48;;;;;;;7.75;5.65;;;;;;;22.46;87.15;99883.59;5028949;28;20067;-82
2023/06/23 03:40:16;;;;;;;5.38;4.68;;;;;;;22.77;87.56;99933.66;5011669;28;20045;-83
2023/06/23 03:42:50;;;;;;;11.38;7.28;;;;;;;22.85;87.81;99942.09;5035043;28;20600;-82
2023/06/23 03:45:18;;;;;;;10.48;5.82;;;;;;;22.66;87.65;99915.50;5025965;28;20102;-83
2023/06/23 03:47:46;;;;;;;8.85;4.82;;;;;;;22.91;87.55;99959.69;5027838;28;20124;-83
2023/06/23 03:50:19;;;;;;;12.20;6.55;;;;;;;22.84;87.48;99950.25;5026173;28;20033;-84
2023/06/23 03:52:45;;;;;;;8.75;5.65;;;;;;;22.75;88.39;99932.00;5024180;28;20029;-84
2023/06/23 03:55:13;;;;;;;12.75;6.60;;;;;;;22.76;88.06;99923.84;5082267;28;20413;-86
2023/06/23 03:57:41;;;;;;;7.97;4.90;;;;;;;23.07;86.72;99949.69;5067747;28;20086;-87
2023/06/23 04:00:09;;;;;;;7.53;4.85;;;;;;;23.01;86.67;99923.16;5082123;28;20474;-86
2023/06/23 04:02:36;;;;;;;10.63;6.32;;;;;;;22.92;86.12;99921.06;5077077;28;20036;-84
2023/06/23 04:05:03;;;;;;;10.80;6.35;;;;;;;23.12;84.58;99941.34;5071725;28;20036;-85
2023/06/23 04:07:29;;;;;;;10.27;7.15;;;;;;;23.27;83.93;99944.91;5081524;28;20055;-83
2023/06/23 04:09:58;;;;;;;12.50;7.60;;;;;;;23.44;84.03;99954.59;5088305;28;20042;-83
2023/06/23 04:12:28;;;;;;;16.08;7.15;;;;;;;23.28;85.72;99952.03;5078079;28;20036;-83
2023/06/23 04:14:55;;;;;;;10.15;6.50;;;;;;;23.33;85.27;99943.66;5087445;28;20028;-83
2023/06/23 04:17:25;;;;;;;12.80;7.03;;;;;;;23.51;84.53;99965.81;5089563;28;20103;-87
2023/06/23 04:19:55;;;;;;;7.82;5.88;;;;;;;23.57;82.95;99968.09;5089902;28;20036;-85
2023/06/23 04:22:22;;;;;;;7.90;5.47;;;;;;;23.66;82.73;99970.19;5083390;28;20107;-83
2023/06/23 04:24:49;;;;;;;8.98;6.40;;;;;;;23.73;81.84;99962.59;5076498;28;20111;-83
2023/06/23 04:27:18;;;;;;;8.20;5.95;;;;;;;23.56;83.07;99974.47;5073273;28;20028;-85
2023/06/23 04:29:46;;;;;;;8.32;4.93;;;;;;;23.69;82.38;99975.38;5075136;28;20039;-85
2023/06/23 04:32:13;;;;;;;12.50;6.75;;;;;;;23.85;82.72;99971.72;5084479;28;20094;-86
2023/06/23 04:34:39;;;;;;;8.27;5.43;;;;;;;23.91;81.91;99958.72;5088100;28;20578;-87
2023/06/23 04:37:08;;;;;;;9.02;5.75;;;;;;;24.01;81.63;99956.28;5091611;28;20358;-86
2023/06/23 04:39:47;;;;;;;9.63;6.55;;;;;;;24.13;81.55;99950.06;5091567;28;20123;-86
2023/06/23 04:42:15;;;;;;;8.23;5.90;;;;;;;24.31;80.99;99955.16;5094354;28;20485;-87
2023/06/23 04:44:50;;;;;;;6.55;4.88;;;;;;;24.52;78.45;99976.25;5091714;28;20083;-86
2023/06/23 04:47:21;;;;;;;8.85;4.78;;;;;;;24.22;79.91;99937.81;5112884;28;20046;-85
2023/06/23 04:49:52;;;;;;;8.40;4.47;;;;;;;24.54;78.68;99953.59;5112175;28;20459;-86
2023/06/23 04:52:20;;;;;;;7.88;5.07;;;;;;;24.56;77.72;99954.34;5113191;28;20042;-86
2023/06/23 04:54:49;;;;;;;9.40;5.32;;;;;;;24.78;77.13;99961.84;5108750;27;20036;-85
2023/06/23 04:57:18;;;;;;;6.60;4.68;;;;;;;24.94;76.67;99944.56;5100510;28;20073;-85
2023/06/23 04:59:51;;;;;;;8.02;4.55;;;;;;;24.90;75.73;99980.81;5113226;28;20051;-87
2023/06/23 05:02:19;;;;;;;9.25;6.30;;;;;;;24.99;74.94;99988.28;5108652;28;20043;-86
2023/06/23 05:04:47;;;;;;;7.70;4.93;;;;;;;25.22;74.40;99961.47;5104917;28;20556;-87
2023/06/23 05:07:16;;;;;;;7.78;5.30;;;;;;;25.41;73.04;99986.22;5114094;28;20027;-86
2023/06/23 05:09:48;;;;;;;5.93;4.10;;;;;;;25.59;71.76;99969.66;5114177;28;20032;-87
2023/06/23 05:12:16;;;;;;;11.73;5.78;;;;;;;25.68;69.66;99972.53;5103735;28;20111;-90
2023/06/23 05:14:43;;;;;;;8.50;5.97;;;;;;;25.73;69.59;99974.88;5096041;28;20051;-88
2023/06/23 05:17:11;;;;;;;8.10;5.03;;;;;;;25.58;68.37;99959.81;5092663;28;20062;-86
2023/06/23 05:19:38;;;;;;;10.10;5.75;;;;;;;25.83;68.42;99970.53;5103762;27;20520;-86
2023/06/23 05:22:08;;;;;;;8.57;5.50;;;;;;;26.18;67.51;99956.25;5105154;28;20032;-84
2023/06/23 05:24:37;;;;;;;8.00;6.03;;;;;;;26.30;66.32;99954.44;5095007;27;20111;-85
2023/06/23 05:27:07;;;;;;;16.52;6.45;;;;;;;26.29;64.61;99950.03;5101792;28;20038;-85
2023/06/23 05:29:36;;;;;;;8.88;6.28;;;;;;;26.27;66.87;99957.38;5092919;28;20032;-85
2023/06/23 05:32:06;;;;;;;8.63;5.55;;;;;;;26.52;64.96;99966.28;5093126;28;20096;-86
2023/06/23 05:34:32;;;;;;;8.23;5.78;;;;;;;26.61;64.37;99944.78;5091109;28;20595;-85
2023/06/23 05:37:01;;;;;;;7.28;5.05;;;;;;;26.90;63.62;99949.78;5093070;28;20107;-85
2023/06/23 05:39:28;;;;;;;11.93;5.75;;;;;;;26.96;62.57;99964.69;5092873;28;20024;-85
2023/06/23 05:41:54;;;;;;;6.18;4.70;;;;;;;26.90;60.59;99938.97;5074038;28;20386;-85
2023/06/23 05:44:19;;;;;;;7.18;4.82;;;;;;;27.40;59.79;99978.38;5091998;28;20052;-86
2023/06/23 05:46:47;;;;;;;9.20;6.25;;;;;;;27.41;60.19;99956.59;5092257;28;20497;-85
2023/06/23 05:49:17;;;;;;;7.90;4.47;;;;;;;27.72;58.87;99958.63;5092242;28;20042;-86
2023/06/23 05:51:47;;;;;;;6.18;4.38;;;;;;;27.98;57.79;99973.59;5092633;28;20025;-85
2023/06/23 05:54:15;;;;;;;6.40;4.25;;;;;;;28.20;55.96;99958.25;5092025;28;20515;-85
2023/06/23 05:56:41;;;;;;;9.82;5.75;;;;;;;28.23;56.63;99975.09;5092242;28;20024;-85
2023/06/23 05:59:11;;;;;;;6.13;3.78;;;;;;;28.33;56.51;99948.09;5092017;28;20031;-86
2023/06/23 06:01:43;;;;;;;5.78;4.82;;;;;;;28.81;55.52;99957.56;5092379;28;20028;-86
2023/06/23 06:04:17;;;;;;;11.38;4.45;;;;;;;28.72;56.35;99937.50;5091828;28;20028;-86
2023/06/23 06:06:45;;;;;;;9.30;5.80;;;;;;;29.08;55.62;99951.53;5092208;28;20063;-85
2023/06/23 06:09:14;;;;;;;6.97;5.03;;;;;;;29.47;54.25;99972.59;5092006;28;20020;-86
2023/06/23 06:11:43;;;;;;;7.85;4.60;;;;;;;29.25;54.06;99938.34;5092237;28;20040;-88
2023/06/23 06:14:10;;;;;;;6.82;5.03;;;;;;;29.23;54.74;99916.78;5091686;28;20020;-88
2023/06/23 06:16:37;;;;;;;8.10;5.55;;;;;;;29.66;54.48;99922.88;5091809;28;20131;-87
2023/06/23 06:19:04;;;;;;;7.38;4.57;;;;;;;29.94;52.35;99955.72;5091684;28;20520;-88
2023/06/23 06:21:32;;;;;;;9.82;5.68;;;;;;;29.78;52.53;99957.09;5091854;28;20490;-86
2023/06/23 06:23:59;;;;;;;7.63;4.68;;;;;;;29.70;52.30;99928.88;5072351;28;20413;-86
2023/06/23 06:26:26;;;;;;;7.95;5.05;;;;;;;29.79;52.86;99933.47;5091251;28;20477;-87
2023/06/23 06:28:56;;;;;;;7.05;4.72;;;;;;;29.94;53.10;99925.81;5111920;28;20114;-86
2023/06/23 06:31:23;;;;;;;10.00;6.47;;;;;;;29.57;54.15;99926.44;5112011;28;20051;-85
2023/06/23 06:33:52;;;;;;;16.83;14.40;;;;;;;29.91;53.55;99931.53;5111218;28;20521;-85
2023/06/23 06:36:20;;;;;;;9.68;6.15;;;;;;;30.07;52.87;99928.22;5111484;28;20043;-86
2023/06/23 06:38:48;;;;;;;8.00;5.35;;;;;;;30.43;52.27;99898.59;5111911;28;20028;-85
2023/06/23 06:41:15;;;;;;;12.32;7.53;;;;;;;30.11;51.47;99940.56;5111424;28;20034;-86
2023/06/23 06:43:44;;;;;;;7.88;5.07;;;;;;;30.34;50.49;99911.19;5099588;28;20586;-84
2023/06/23 06:46:11;;;;;;;7.25;4.90;;;;;;;30.95;50.50;99953.47;5090724;28;20728;-85
2023/06/23 06:48:39;;;;;;;8.60;5.47;;;;;;;30.94;49.69;99940.88;5090572;28;20531;-85
2023/06/23 06:51:06;;;;;;;11.90;5.82;;;;;;;31.28;48.26;99943.06;5090932;28;20047;-87
2023/06/23 06:53:32;;;;;;;6.80;4.85;;;;;;;31.15;47.72;99928.91;5090995;28;20123;-87
2023/06/23 06:55:58;;;;;;;7.45;4.15;;;;;;;31.25;47.83;99921.56;5090910;28;20409;-85
2023/06/23 06:58:24;;;;;;;6.88;4.10;;;;;;;31.80;48.16;99938.91;5091282;28;20058;-86
2023/06/23 07:00:53;;;;;;;7.85;4.07;;;;;;;31.87;46.24;99926.34;5102752;28;20028;-85
2023/06/23 07:03:19;;;;;;;6.97;4.25;;;;;;;31.42;46.63;99914.44;5111225;28;20460;-84
2023/06/23 07:05:44;;;;;;;6.68;4.40;;;;;;;32.18;45.40;99942.34;5110518;28;20493;-86
2023/06/23 07:08:10;;;;;;;8.05;5.45;;;;;;;32.15;46.45;99909.91;5111430;28;20031;-87
2023/06/23 07:10:36;;;;;;;7.15;4.28;;;;;;;32.58;45.96;99932.75;5110794;28;20092;-87
2023/06/23 07:13:03;;;;;;;7.60;4.90;;;;;;;32.70;43.34;99906.94;5092202;28;20517;-88
2023/06/23 07:15:29;;;;;;;6.15;3.78;;;;;;;32.64;44.45;99921.22;5111020;28;20039;-88
2023/06/23 07:17:55;;;;;;;6.03;4.03;;;;;;;32.67;45.93;99929.09;5110616;28;20461;-88
2023/06/23 07:20:20;;;;;;;6.38;4.68;;;;;;;32.81;45.16;99944.03;5111657;28;20032;-87
2023/06/23 07:22:46;;;;;;;5.50;4.13;;;;;;;32.86;43.88;99918.97;5111945;28;20065;-88
2023/06/23 07:25:11;;;;;;;5.50;4.40;;;;;;;32.89;43.65;99935.91;5111465;28;20138;-87
2023/06/23 07:27:37;;;;;;;8.82;6.25;;;;;;;33.05;43.22;99953.41;5074932;28;20051;-87
2023/06/23 07:30:04;;;;;;;6.88;4.63;;;;;;;33.27;43.80;99920.06;5090510;28;20032;-88
2023/06/23 07:32:29;;;;;;;6.72;4.45;;;;;;;33.26;43.57;99931.16;5090059;28;20032;-87
2023/06/23 07:34:56;;;;;;;7.43;4.40;;;;;;;33.34;42.60;99929.31;5089841;28;20028;-87
2023/06/23 07:37:23;;;;;;;7.00;4.53;;;;;;;33.24;43.47;99911.34;5072343;28;20044;-88
2023/06/23 07:39:49;;;;;;;7.72;4.82;;;;;;;33.08;42.78;99909.38;5090745;28;20033;-86
2023/06/23 07:42:14;;;;;;;7.68;4.95;;;;;;;32.83;45.74;99920.19;5071854;28;20486;-86
2023/06/23 07:44:40;;;;;;;6.07;4.00;;;;;;;32.84;44.99;99919.16;5090279;28;20024;-89
2023/06/23 07:47:06;;;;;;;7.18;4.43;;;;;;;33.10;42.36;99913.63;5090363;28;20032;-87
2023/06/23 07:49:31;;;;;;;6.43;4.78;;;;;;;33.50;43.85;99911.28;5089633;28;20039;-87
2023/06/23 07:52:00;;;;;;;10.30;8.20;;;;;;;33.86;43.46;99900.06;5090361;28;20036;-87
2023/06/23 07:54:29;;;;;;;8.00;5.10;;;;;;;34.00;42.21;99923.19;5090644;28;20126;-87
2023/06/23 07:56:55;;;;;;;10.10;5.93;;;;;;;33.61;42.39;99907.38;5090183;28;20028;-87
2023/06/23 07:59:21;;;;;;;8.13;4.20;;;;;;;33.34;41.40;99898.41;5089703;28;20020;-87
2023/06/23 08:01:47;;;;;;;6.57;4.80;;;;;;;33.52;41.63;99884.59;5090213;28;20386;-87
2023/06/23 08:04:12;;;;;;;6.97;4.20;;;;;;;33.77;42.10;99910.19;5089952;28;20062;-87
2023/06/23 08:06:38;;;;;;;7.18;5.00;;;;;;;33.64;43.14;99891.47;5090236;28;20043;-87
2023/06/23 08:09:04;;;;;;;7.65;4.20;;;;;;;34.11;42.05;99911.03;5090403;28;20020;-87
2023/06/23 08:11:29;;;;;;;6.75;3.97;;;;;;;33.71;41.50;99848.78;5090071;28;20051;-87
2023/06/23 08:13:55;;;;;;;10.10;6.13;;;;;;;34.36;41.37;99915.53;5090079;28;20097;-87
2023/06/23 08:16:21;;;;;;;7.60;4.55;;;;;;;34.03;40.84;99874.47;5089462;28;20032;-87
2023/06/23 08:18:46;;;;;;;6.53;4.40;;;;;;;34.31;40.64;99856.84;5090007;28;20499;-87
2023/06/23 08:21:12;;;;;;;5.45;3.67;;;;;;;34.70;39.68;99878.84;5089915;28;20020;-87
2023/06/23 08:23:38;;;;;;;6.95;4.15;;;;;;;34.32;40.28;99881.28;5071710;28;20165;-87
2023/06/23 08:26:04;;;;;;;6.70;4.25;;;;;;;34.34;38.66;99892.94;5090074;28;20516;-87
2023/06/23 08:28:30;;;;;;;5.65;4.30;;;;;;;34.13;40.46;99866.06;5089732;28;20031;-87
2023/06/23 08:30:57;;;;;;;9.20;5.47;;;;;;;34.38;39.64;99899.78;5089651;28;20086;-87
2023/06/23 08:33:23;;;;;;;7.20;4.55;;;;;;;34.51;40.52;99880.09;5089976;28;20035;-88
2023/06/23 08:35:48;;;;;;;7.43;4.55;;;;;;;34.50;39.75;99863.84;5089929;28;20032;-88
2023/06/23 08:38:15;;;;;;;6.93;4.53;;;;;;;33.96;40.52;99892.56;5089418;28;20036;-87
2023/06/23 08:40:41;;;;;;;6.63;4.15;;;;;;;34.13;40.30;99890.69;5071318;28;20040;-87
2023/06/23 08:43:10;;;;;;;7.32;4.10;;;;;;;33.91;44.34;99859.41;5089269;28;20068;-86
2023/06/23 08:45:41;;;;;;;5.90;4.05;;;;;;;34.49;42.13;99854.75;5093329;28;20130;-86
2023/06/23 08:48:11;;;;;;;10.20;4.78;;;;;;;34.65;40.04;99853.00;5074389;28;20043;-82
2023/06/23 08:50:37;;;;;;;8.30;4.63;;;;;;;34.43;40.19;99885.56;5095172;28;20042;-83
2023/06/23 08:53:06;;;;;;;7.60;5.05;;;;;;;34.38;42.42;99847.75;5095137;28;20123;-82
2023/06/23 08:55:32;;;;;;;8.30;5.13;;;;;;;34.49;41.56;99873.06;5094880;28;20058;-83
2023/06/23 08:58:02;;;;;;;7.30;4.85;;;;;;;34.74;41.63;99868.38;5094142;28;20027;-82
2023/06/23 09:00:27;;;;;;;8.55;5.13;;;;;;;34.76;40.54;99819.81;5091955;28;20058;-83
2023/06/23 09:02:56;;;;;;;7.68;4.57;;;;;;;34.98;39.85;99856.50;5094314;28;20135;-82
2023/06/23 09:05:21;;;;;;;7.07;4.72;;;;;;;34.85;40.29;99853.47;5096228;28;20066;-83
2023/06/23 09:07:48;;;;;;;9.00;4.63;;;;;;;34.50;40.48;99845.50;5093330;28;20088;-83
2023/06/23 09:10:13;;;;;;;7.55;4.63;;;;;;;34.70;40.02;99847.88;5091787;28;20158;-83
2023/06/23 09:12:47;;;;;;;6.50;4.55;;;;;;;34.98;39.89;99842.81;5096474;27;20111;-83
2023/06/23 09:15:14;;;;;;;9.25;4.35;;;;;;;35.02;39.43;99859.75;5099252;28;20080;-82
2023/06/23 09:17:42;;;;;;;9.48;5.50;;;;;;;35.35;38.51;99840.44;5096123;28;20046;-82
2023/06/23 09:20:09;;;;;;;8.80;4.22;;;;;;;35.39;37.60;99822.56;5094746;28;20039;-81
2023/06/23 09:22:36;;;;;;;6.90;4.53;;;;;;;35.05;38.86;99837.47;5095859;28;20047;-81
2023/06/23 09:25:02;;;;;;;7.43;4.90;;;;;;;34.82;39.89;99831.91;5090959;27;20059;-82
2023/06/23 09:27:41;;;;;;;11.07;5.47;;;;;;;34.86;40.16;99811.38;5097610;27;20063;-82
2023/06/23 09:30:07;;;;;;;7.78;4.57;;;;;;;35.38;38.64;99821.72;5090286;28;20179;-81
2023/06/23 09:32:33;;;;;;;5.43;3.67;;;;;;;35.37;38.10;99843.84;5089333;28;20036;-82
2023/06/23 09:34:58;;;;;;;5.43;4.05;;;;;;;35.79;38.21;99826.09;5089406;28;20043;-82
2023/06/23 09:37:25;;;;;;;8.00;4.63;;;;;;;35.62;40.28;99828.94;5087606;27;20039;-81
2023/06/23 09:39:55;;;;;;;9.05;4.55;;;;;;;35.23;37.43;99827.09;5089543;27;20032;-82
2023/06/23 09:42:22;;;;;;;7.90;5.10;;;;;;;35.39;37.44;99841.75;5087882;28;20489;-83
2023/06/23 09:44:48;;;;;;;6.80;3.92;;;;;;;35.53;39.40;99841.00;5090381;28;20775;-83
2023/06/23 09:47:16;;;;;;;6.90;4.72;;;;;;;35.59;37.00;99812.84;5089804;28;20035;-84
2023/06/23 09:49:44;;;;;;;6.40;4.47;;;;;;;35.20;37.61;99830.19;5090867;28;20085;-83
2023/06/23 09:52:13;;;;;;;9.43;4.35;;;;;;;35.59;37.98;99822.94;5091226;28;20474;-82
2023/06/23 09:54:40;;;;;;;8.15;4.15;;;;;;;35.76;37.08;99824.59;5096445;28;20031;-82
2023/06/23 09:57:13;;;;;;;5.68;4.40;;;;;;;35.43;38.95;99823.94;5092102;28;20056;-82
2023/06/23 09:59:44;;;;;;;6.00;3.75;;;;;;;35.29;38.56;99822.81;5095986;28;20036;-81
2023/06/23 10:02:27;;;;;;;9.77;3.92;;;;;;;35.16;38.60;99809.69;5092414;28;20062;-82
2023/06/23 10:05:01;;;;;;;6.07;3.80;;;;;;;35.36;36.56;99809.22;5094554;28;20716;-82
2023/06/23 10:07:28;;;;;;;5.30;3.45;;;;;;;35.19;36.70;99784.66;5094004;28;20280;-82
2023/06/23 10:09:56;;;;;;;9.73;5.22;;;;;;;35.53;36.75;99797.13;5092973;27;20028;-82
2023/06/23 10:12:26;;;;;;;17.92;4.63;;;;;;;35.55;37.55;99772.25;5077596;28;21858;-81
2023/06/23 10:14:53;;;;;;;6.22;4.00;;;;;;;35.50;37.49;99783.78;5071855;28;20398;-82
2023/06/23 10:17:19;;;;;;;4.43;3.22;;;;;;;35.40;38.50;99780.41;5092413;28;20032;-83
2023/06/23 10:19:46;;;;;;;12.45;3.92;;;;;;;35.35;37.61;99799.31;5095233;28;20089;-81
2023/06/23 10:22:18;;;;;;;9.48;5.35;;;;;;;35.03;36.16;99799.28;5075430;28;20114;-81
2023/06/23 10:24:46;;;;;;;5.10;3.15;;;;;;;35.49;35.48;99777.44;5098627;28;20039;-81
2023/06/23 10:27:17;;;;;;;10.10;3.97;;;;;;;35.64;34.80;99749.22;5099095;28;20028;-80
2023/06/23 10:29:49;;;;;;;4.90;3.20;;;;;;;35.63;36.20;99761.22;5096330;27;20058;-82
2023/06/23 10:32:16;;;;;;;10.27;2.95;;;;;;;35.77;34.41;99767.81;5092796;28;20024;-82
2023/06/23 10:34:44;;;;;;;5.18;3.25;;;;;;;35.78;34.25;99772.28;5078600;28;20467;-82
2023/06/23 10:37:15;;;;;;;4.75;2.95;;;;;;;35.78;34.59;99786.84;5097520;28;20111;-82
2023/06/23 10:39:47;;;;;;;5.90;3.22;;;;;;;35.13;34.41;99764.28;5101525;28;20038;-81
2023/06/23 10:42:15;;;;;;;4.43;3.00;;;;;;;35.03;34.13;99768.28;5090291;28;20105;-82
2023/06/23 10:44:41;;;;;;;5.20;3.17;;;;;;;35.46;32.97;99771.47;5091361;28;20056;-83
2023/06/23 10:47:08;;;;;;;4.50;2.90;;;;;;;35.70;32.16;99748.47;5096742;27;20119;-83
2023/06/23 10:49:35;;;;;;;5.47;3.78;;;;;;;35.85;31.98;99749.41;5081047;28;20024;-82
2023/06/23 10:52:02;;;;;;;4.65;3.03;;;;;;;35.73;33.13;99753.59;5091315;28;20028;-87
2023/06/23 10:54:31;;;;;;;4.90;3.05;;;;;;;35.53;33.37;99735.91;5091641;28;20024;-83
2023/06/23 10:56:57;;;;;;;7.72;4.07;;;;;;;35.26;32.81;99730.81;5071762;28;20044;-83
2023/06/23 10:59:23;;;;;;;6.57;3.83;;;;;;;35.33;33.22;99763.84;5091159;28;20032;-84
2023/06/23 11:02:02;;;;;;;8.02;2.78;;;;;;;35.79;31.30;99752.00;5107999;28;20023;-82
2023/06/23 11:04:29;;;;;;;4.47;3.10;;;;;;;36.04;31.08;99736.19;5091044;28;20027;-84
2023/06/23 11:07:02;;;;;;;4.13;2.72;;;;;;;36.25;32.41;99726.31;5090972;28;20040;-83
2023/06/23 11:09:54;;;;;;;5.05;2.50;;;;;;;36.17;31.10;99741.00;5104892;27;20027;-84
2023/06/23 11:12:36;;;;;;;5.25;3.03;;;;;;;36.06;35.13;99739.56;5085944;28;20036;-84
2023/06/23 11:15:20;;;;;;;7.22;3.30;;;;;;;36.21;33.13;99723.13;5091168;28;20436;-82
2023/06/23 11:17:49;;;;;;;5.70;3.60;;;;;;;35.78;35.58;99731.97;5090383;28;20143;-83
2023/06/23 11:20:28;;;;;;;6.65;3.45;;;;;;;35.80;34.24;99715.31;5095147;28;20031;-83
2023/06/23 11:23:11;;;;;;;4.40;2.97;;;;;;;35.97;33.68;99716.84;5084372;28;20101;-83
2023/06/23 11:25:44;;;;;;;5.13;2.95;;;;;;;36.14;33.16;99694.72;5101521;28;20063;-83
2023/06/23 11:28:34;;;;;;;4.70;2.83;;;;;;;36.49;31.84;99715.06;5092004;28;20096;-82
2023/06/23 11:30:59;;;;;;;7.03;3.60;;;;;;;35.98;32.45;99710.31;5095849;28;20032;-84
2023/06/23 11:33:32;;;;;;;7.70;3.97;;;;;;;35.76;32.30;99712.09;5095284;27;20092;-84
2023/06/23 11:36:06;;;;;;;4.07;2.50;;;;;;;35.73;31.72;99651.22;5079273;28;20089;-84
2023/06/23 11:38:33;;;;;;;4.78;3.03;;;;;;;35.70;33.42;99704.59;5095839;27;20171;-84
2023/06/23 11:41:00;;;;;;;5.07;3.20;;;;;;;35.42;34.56;99680.50;5091530;28;20093;-83